createdAt,value
2019-05-25T00:00:55.486Z,91.40
2019-05-25T00:03:24.063Z,91.30
2019-05-25T00:05:52.638Z,91.20
2019-05-25T00:08:21.170Z,91.10
2019-05-25T00:10:50.203Z,91.40
2019-05-25T00:13:18.697Z,91.10
2019-05-25T00:15:47.231Z,91.00
2019-05-25T00:18:15.766Z,91.00
2019-05-25T00:20:44.395Z,91.10
2019-05-25T00:23:12.858Z,91.20
2019-05-25T00:25:41.356Z,91.40
2019-05-25T00:28:09.866Z,91.40
2019-05-25T00:30:38.467Z,91.40
2019-05-25T00:33:06.987Z,91.40
2019-05-25T00:35:35.559Z,91.60
2019-05-25T00:38:04.138Z,91.50
2019-05-25T00:40:32.791Z,91.60
2019-05-25T00:43:01.372Z,91.70
2019-05-25T00:45:29.921Z,91.60
2019-05-25T00:47:58.970Z,91.60
2019-05-25T00:50:27.470Z,91.60
2019-05-25T00:52:56.012Z,92.00
2019-05-25T00:55:24.517Z,91.70
2019-05-25T00:57:53.461Z,91.70
2019-05-25T01:00:22.255Z,91.60
2019-05-25T01:02:50.847Z,91.70
2019-05-25T01:05:19.378Z,91.30
2019-05-25T01:07:47.848Z,91.60
2019-05-25T01:10:17.253Z,91.40
2019-05-25T01:12:45.790Z,92.00
2019-05-25T01:15:15.737Z,91.70
2019-05-25T01:17:44.295Z,91.70
2019-05-25T01:20:15.110Z,91.70
2019-05-25T01:22:43.690Z,91.70
2019-05-25T01:25:13.316Z,91.70
2019-05-25T01:27:41.847Z,92.10
2019-05-25T01:30:11.895Z,91.80
2019-05-25T01:32:40.575Z,91.80
2019-05-25T01:35:09.563Z,91.80
2019-05-25T01:37:38.443Z,91.90
2019-05-25T01:40:08.203Z,92.00
2019-05-25T01:42:36.687Z,92.00
2019-05-25T01:45:08.622Z,91.90
2019-05-25T01:47:37.191Z,91.90
2019-05-25T01:50:09.120Z,91.90
2019-05-25T01:52:37.648Z,91.90
2019-05-25T01:55:06.798Z,91.90
2019-05-25T01:57:35.395Z,91.90
2019-05-25T02:00:05.910Z,91.80
2019-05-25T02:02:34.772Z,91.70
2019-05-25T02:05:03.427Z,91.80
2019-05-25T02:07:31.974Z,91.80
2019-05-25T02:10:00.592Z,91.80
2019-05-25T02:12:29.178Z,91.70
2019-05-25T02:14:57.707Z,91.70
2019-05-25T02:17:26.229Z,91.80
2019-05-25T02:19:54.870Z,91.80
2019-05-25T02:22:23.451Z,91.80
2019-05-25T02:24:52.055Z,91.70
2019-05-25T02:27:20.591Z,91.70
2019-05-25T02:29:49.054Z,91.70
2019-05-25T02:32:17.547Z,91.60
2019-05-25T02:34:46.130Z,91.60
2019-05-25T02:37:14.662Z,91.50
2019-05-25T02:39:43.204Z,91.60
2019-05-25T02:42:11.744Z,91.50
2019-05-25T02:44:40.209Z,91.50
2019-05-25T02:47:08.829Z,91.70
2019-05-25T02:49:37.405Z,91.70
2019-05-25T02:52:05.969Z,91.70
2019-05-25T02:54:34.544Z,91.80
2019-05-25T02:57:03.116Z,91.70
2019-05-25T02:59:31.837Z,91.70
2019-05-25T03:02:00.486Z,92.00
2019-05-25T03:04:29.024Z,91.50
2019-05-25T03:06:58.036Z,91.50
2019-05-25T03:09:28.376Z,91.60
2019-05-25T03:11:59.379Z,91.60
2019-05-25T03:14:28.155Z,91.70
2019-05-25T03:16:56.723Z,91.80
2019-05-25T03:19:25.201Z,91.90
2019-05-25T03:21:53.770Z,92.00
2019-05-25T03:24:22.877Z,91.80
2019-05-25T03:26:51.391Z,91.90
2019-05-25T03:29:19.922Z,91.90
2019-05-25T03:31:48.464Z,91.70
2019-05-25T03:34:17.042Z,91.80
2019-05-25T03:36:45.616Z,91.60
2019-05-25T03:39:14.191Z,91.70
2019-05-25T03:41:42.787Z,91.70
2019-05-25T03:44:11.344Z,91.70
2019-05-25T03:46:39.948Z,91.30
2019-05-25T03:49:08.618Z,91.20
2019-05-25T03:51:37.204Z,91.50
2019-05-25T03:54:06.186Z,91.50
2019-05-25T03:56:34.755Z,91.50
2019-05-25T03:59:03.605Z,91.20
2019-05-25T04:01:32.187Z,91.10
2019-05-25T04:04:00.772Z,91.00
2019-05-25T04:06:29.320Z,91.00
2019-05-25T04:08:57.892Z,91.00
2019-05-25T04:11:26.369Z,90.70
2019-05-25T04:13:54.942Z,90.70
2019-05-25T04:16:23.511Z,90.80
2019-05-25T04:18:52.003Z,90.70
2019-05-25T04:21:20.787Z,90.50
2019-05-25T04:23:49.385Z,90.40
2019-05-25T04:26:22.660Z,90.50
2019-05-25T04:28:48.162Z,90.20
2019-05-25T04:31:16.726Z,90.30
2019-05-25T04:33:45.229Z,90.20
2019-05-25T04:36:13.808Z,90.20
2019-05-25T04:38:42.391Z,90.30
2019-05-25T04:41:10.972Z,90.20
2019-05-25T04:43:39.561Z,90.10
2019-05-25T04:46:08.133Z,90.20
2019-05-25T04:48:36.645Z,90.10
2019-05-25T04:51:05.290Z,90.20
2019-05-25T04:53:33.900Z,90.40
2019-05-25T04:56:02.543Z,89.80
2019-05-25T04:58:31.087Z,89.80
2019-05-25T05:00:59.661Z,90.00
2019-05-25T05:03:28.133Z,89.70
2019-05-25T05:05:56.706Z,88.90
2019-05-25T05:08:25.353Z,88.60
2019-05-25T05:10:53.892Z,87.90
2019-05-25T05:13:22.437Z,87.90
2019-05-25T05:15:51.058Z,87.40
2019-05-25T05:18:19.634Z,86.60
2019-05-25T05:20:48.166Z,85.80
2019-05-25T05:23:16.673Z,84.80
2019-05-25T05:25:45.173Z,83.60
2019-05-25T05:28:13.733Z,82.70
2019-05-25T05:30:42.274Z,82.90
2019-05-25T05:33:10.837Z,82.00
2019-05-25T05:35:39.663Z,81.30
2019-05-25T05:38:08.246Z,81.20
2019-05-25T05:40:37.370Z,80.80
2019-05-25T05:43:11.201Z,80.10
2019-05-25T05:45:42.695Z,80.20
2019-05-25T05:48:12.367Z,79.80
2019-05-25T05:50:41.867Z,79.50
2019-05-25T05:53:10.648Z,78.20
2019-05-25T05:55:39.227Z,77.50
2019-05-25T05:58:07.796Z,77.00
2019-05-25T06:00:36.488Z,77.50
2019-05-25T06:03:05.131Z,76.10
2019-05-25T06:05:33.666Z,75.80
2019-05-25T06:08:02.162Z,75.90
2019-05-25T06:10:30.879Z,74.30
2019-05-25T06:12:59.520Z,73.70
2019-05-25T06:15:28.106Z,72.90
2019-05-25T06:17:56.611Z,72.60
2019-05-25T06:20:25.190Z,72.10
2019-05-25T06:22:53.806Z,69.90
2019-05-25T06:25:22.413Z,68.40
2019-05-25T06:27:50.950Z,66.60
2019-05-25T06:30:20.293Z,68.30
2019-05-25T06:32:48.862Z,68.70
2019-05-25T06:35:17.647Z,67.70
2019-05-25T06:37:46.217Z,66.80
2019-05-25T06:40:15.629Z,68.10
2019-05-25T06:42:44.207Z,66.60
2019-05-25T06:45:13.241Z,67.80
2019-05-25T06:47:41.840Z,68.00
2019-05-25T06:50:11.315Z,68.00
2019-05-25T06:52:40.308Z,66.80
2019-05-25T06:55:09.597Z,66.80
2019-05-25T06:57:43.315Z,66.20
2019-05-25T07:00:10.428Z,65.60
2019-05-25T07:02:39.012Z,65.50
2019-05-25T07:05:08.685Z,64.10
2019-05-25T07:07:37.205Z,63.50
2019-05-25T07:10:07.880Z,61.90
2019-05-25T07:12:36.418Z,62.50
2019-05-25T07:15:07.471Z,62.30
2019-05-25T07:17:36.086Z,61.30
2019-05-25T07:20:09.064Z,59.80
2019-05-25T07:22:37.611Z,59.50
2019-05-25T07:25:07.404Z,57.30
2019-05-25T07:27:36.131Z,53.60
2019-05-25T07:30:08.256Z,51.80
2019-05-25T07:32:36.896Z,51.30
2019-05-25T07:35:07.071Z,47.30
2019-05-25T07:37:35.646Z,48.00
2019-05-25T07:40:07.329Z,48.00
2019-05-25T07:42:35.998Z,47.60
2019-05-25T07:45:08.164Z,48.40
2019-05-25T07:47:36.804Z,48.20
2019-05-25T07:50:09.506Z,48.60
2019-05-25T07:52:38.121Z,48.60
2019-05-25T07:55:10.128Z,47.70
2019-05-25T07:57:38.634Z,48.80
2019-05-25T08:00:08.220Z,47.20
2019-05-25T08:02:37.131Z,46.20
2019-05-25T08:05:07.377Z,43.60
2019-05-25T08:07:36.037Z,43.30
2019-05-25T08:10:05.778Z,42.10
2019-05-25T08:12:34.316Z,42.60
2019-05-25T08:15:02.888Z,41.60
2019-05-25T08:17:31.400Z,42.00
2019-05-25T08:19:59.934Z,41.80
2019-05-25T08:22:28.537Z,39.90
2019-05-25T08:24:57.177Z,40.30
2019-05-25T08:27:25.775Z,39.70
2019-05-25T08:29:54.389Z,39.50
2019-05-25T08:32:22.961Z,38.50
2019-05-25T08:34:51.624Z,37.40
2019-05-25T08:37:20.196Z,37.00
2019-05-25T08:39:48.703Z,34.00
2019-05-25T08:42:17.257Z,32.50
2019-05-25T08:44:45.840Z,31.70
2019-05-25T08:47:14.346Z,30.20
2019-05-25T08:49:42.920Z,30.80
2019-05-25T08:52:11.516Z,30.00
2019-05-25T08:54:40.043Z,28.60
2019-05-25T08:57:08.682Z,28.00
2019-05-25T08:59:37.269Z,28.00
2019-05-25T09:02:05.975Z,27.50
2019-05-25T09:04:34.456Z,27.10
2019-05-25T09:07:03.020Z,28.40
2019-05-25T09:09:31.493Z,30.00
2019-05-25T09:12:02.271Z,30.50
2019-05-25T09:14:30.627Z,32.20
2019-05-25T09:16:59.092Z,29.90
2019-05-25T09:19:27.564Z,30.10
2019-05-25T09:22:02.357Z,28.00
2019-05-25T09:24:26.407Z,27.60
2019-05-25T09:26:54.978Z,26.40
2019-05-25T09:29:23.581Z,25.70
2019-05-25T09:31:52.123Z,24.80
2019-05-25T09:34:20.647Z,25.60
2019-05-25T09:36:49.236Z,26.00
2019-05-25T09:39:17.855Z,26.00
2019-05-25T09:41:46.368Z,26.50
2019-05-25T09:44:15.012Z,26.60
2019-05-25T09:46:43.570Z,25.90
2019-05-25T09:49:12.248Z,26.70
2019-05-25T09:51:40.850Z,27.70
2019-05-25T09:54:09.409Z,30.10
2019-05-25T09:56:37.955Z,30.60
2019-05-25T09:59:19.267Z,32.20
2019-05-25T10:01:36.969Z,34.30
2019-05-25T10:04:05.676Z,31.40
2019-05-25T10:06:34.682Z,32.40
2019-05-25T10:09:04.289Z,31.00
2019-05-25T10:11:32.820Z,31.10
2019-05-25T10:14:01.339Z,31.80
2019-05-25T10:16:29.885Z,31.70
2019-05-25T10:18:58.384Z,31.50
2019-05-25T10:21:26.985Z,31.50
2019-05-25T10:23:55.561Z,30.10
2019-05-25T10:26:24.109Z,30.00
2019-05-25T10:28:52.788Z,31.50
2019-05-25T10:31:21.291Z,31.50
2019-05-25T10:33:49.832Z,32.00
2019-05-25T10:36:18.373Z,32.20
2019-05-25T10:38:46.896Z,30.80
2019-05-25T10:41:15.430Z,30.00
2019-05-25T10:43:44.025Z,28.20
2019-05-25T10:46:12.713Z,28.00
2019-05-25T10:48:41.270Z,26.20
2019-05-25T10:51:09.911Z,27.00
2019-05-25T10:53:38.537Z,27.70
2019-05-25T10:56:07.112Z,28.70
2019-05-25T10:58:35.725Z,28.00
2019-05-25T11:01:04.327Z,31.30
2019-05-25T11:03:32.870Z,30.60
2019-05-25T11:06:01.578Z,30.00
2019-05-25T11:08:30.099Z,27.70
2019-05-25T11:10:58.589Z,25.80
2019-05-25T11:13:27.273Z,27.30
2019-05-25T11:15:55.846Z,29.10
2019-05-25T11:18:24.478Z,29.40
2019-05-25T11:20:53.072Z,28.00
2019-05-25T11:23:21.653Z,27.30
2019-05-25T11:25:50.332Z,26.50
2019-05-25T11:28:19.251Z,25.10
2019-05-25T11:30:47.815Z,26.20
2019-05-25T11:33:16.359Z,27.20
2019-05-25T11:35:45.016Z,27.90
2019-05-25T11:38:13.867Z,28.60
2019-05-25T11:40:42.640Z,29.10
2019-05-25T11:43:11.357Z,28.90
2019-05-25T11:45:40.052Z,29.10
2019-05-25T11:48:08.765Z,28.10
